createdAt,value
2023-04-28T00:01:06.478Z,2.20
2023-04-28T00:06:22.252Z,2.20
2023-04-28T00:11:31.175Z,2.10
2023-04-28T00:16:40.473Z,2.40
2023-04-28T00:21:49.849Z,2.10
2023-04-28T00:27:14.933Z,2.20
2023-04-28T00:32:44.137Z,2.10
2023-04-28T00:37:51.736Z,2.10
2023-04-28T00:42:54.415Z,2.10
2023-04-28T00:48:20.605Z,1.90
2023-04-28T00:53:28.693Z,1.70
2023-04-28T00:58:41.689Z,1.50
2023-04-28T01:03:46.218Z,1.70
2023-04-28T01:09:52.613Z,1.80
2023-04-28T01:15:00.708Z,1.80
2023-04-28T01:20:22.900Z,1.80
2023-04-28T01:25:31.748Z,1.60
2023-04-28T01:30:45.492Z,2.00
2023-04-28T01:36:00.116Z,1.90
2023-04-28T01:41:06.701Z,1.80
2023-04-28T01:46:12.296Z,1.60
2023-04-28T01:51:17.389Z,1.50
2023-04-28T01:56:22.650Z,1.50
2023-04-28T02:01:27.573Z,1.50
2023-04-28T02:06:34.812Z,1.70
2023-04-28T02:11:59.425Z,1.70
2023-04-28T02:17:05.650Z,1.40
2023-04-28T02:22:09.315Z,1.50
2023-04-28T02:27:12.733Z,1.40
2023-04-28T02:32:19.796Z,1.30
2023-04-28T02:37:24.937Z,1.30
2023-04-28T02:42:30.088Z,1.40
2023-04-28T02:47:34.666Z,1.30
2023-04-28T02:52:51.695Z,1.00
2023-04-28T02:58:05.660Z,1.00
2023-04-28T03:03:19.142Z,1.20
2023-04-28T03:08:22.528Z,1.30
2023-04-28T03:13:34.772Z,1.00
2023-04-28T03:18:40.165Z,0.90
2023-04-28T03:23:49.108Z,1.30
2023-04-28T03:28:56.199Z,1.00
2023-04-28T03:34:01.226Z,1.00
2023-04-28T03:39:13.584Z,1.20
2023-04-28T03:44:16.633Z,1.20
2023-04-28T03:49:24.046Z,1.30
2023-04-28T03:54:36.517Z,1.30
2023-04-28T04:00:04.780Z,1.20
2023-04-28T04:05:19.419Z,1.00
2023-04-28T04:10:42.105Z,0.90
2023-04-28T04:16:00.745Z,1.00
2023-04-28T04:21:06.777Z,1.00
2023-04-28T04:26:14.213Z,1.10
2023-04-28T04:31:21.336Z,1.50
2023-04-28T04:36:23.916Z,1.50
2023-04-28T04:41:27.265Z,1.50
2023-04-28T04:46:56.170Z,1.80
2023-04-28T04:52:08.325Z,1.90
2023-04-28T04:57:11.583Z,2.20
2023-04-28T05:02:58.049Z,2.70
2023-04-28T05:08:00.988Z,2.90
2023-04-28T05:13:04.361Z,3.10
2023-04-28T05:18:11.099Z,3.20
2023-04-28T05:23:14.009Z,3.50
2023-04-28T05:34:11.609Z,3.80
2023-04-28T05:39:14.369Z,4.10
2023-04-28T05:44:18.074Z,4.30
2023-04-28T05:49:21.660Z,4.50
2023-04-28T05:54:26.291Z,4.70
2023-04-28T05:59:35.703Z,5.00
2023-04-28T06:04:41.932Z,5.30
2023-04-28T06:09:45.421Z,5.30
2023-04-28T06:14:53.286Z,5.60
2023-04-28T06:19:59.295Z,5.90
2023-04-28T06:25:35.504Z,6.30
2023-04-28T06:36:52.600Z,6.70
2023-04-28T06:41:58.478Z,7.10
2023-04-28T06:52:53.580Z,7.90
2023-04-28T06:57:57.019Z,8.00
2023-04-28T07:08:53.382Z,8.50
2023-04-28T07:13:54.225Z,8.60
2023-04-28T07:19:22.403Z,8.70
2023-04-28T07:24:25.042Z,8.90
2023-04-28T07:29:29.234Z,9.10
2023-04-28T07:34:35.959Z,9.40
2023-04-28T07:39:48.064Z,9.80
2023-04-28T07:44:50.576Z,10.00
2023-04-28T07:49:53.346Z,10.00
2023-04-28T07:55:07.121Z,10.10
2023-04-28T08:00:12.068Z,10.10
2023-04-28T08:05:16.099Z,10.20
2023-04-28T08:10:18.516Z,10.30
2023-04-28T08:15:21.433Z,10.30
2023-04-28T08:20:26.603Z,10.40
2023-04-28T08:25:29.166Z,10.50
2023-04-28T08:30:31.830Z,10.70
2023-04-28T08:35:34.679Z,10.80
2023-04-28T08:40:37.454Z,10.90
2023-04-28T08:45:49.313Z,11.10
2023-04-28T08:50:54.694Z,11.00
2023-04-28T08:55:58.679Z,11.20
2023-04-28T09:01:04.637Z,11.30
2023-04-28T09:06:07.499Z,11.40
2023-04-28T09:16:57.136Z,11.60
2023-04-28T09:22:24.920Z,11.70
2023-04-28T10:19:18.234Z,14.50
2023-04-28T10:44:44.004Z,15.80
2023-04-28T10:50:36.164Z,16.10
2023-04-28T11:02:43.931Z,17.20
2023-04-28T11:08:36.518Z,17.80
2023-04-28T11:13:42.268Z,18.10
2023-04-28T11:19:04.840Z,18.40
2023-04-28T11:24:11.242Z,18.80
2023-04-28T11:29:22.679Z,19.20
2023-04-28T11:34:39.696Z,19.30
2023-04-28T11:39:42.098Z,19.20
2023-04-28T11:44:54.907Z,19.60
2023-04-28T11:50:08.300Z,19.90
2023-04-28T11:55:22.056Z,20.10
2023-04-28T12:00:36.623Z,20.20
2023-04-28T12:23:08.939Z,22.20
2023-04-28T12:33:51.715Z,23.10
2023-04-28T12:38:54.088Z,23.30
2023-04-28T12:43:56.601Z,23.50
2023-04-28T12:48:58.967Z,23.60
2023-04-28T12:54:01.764Z,23.80
2023-04-28T12:59:04.433Z,23.80
2023-04-28T13:04:06.975Z,24.30
2023-04-28T13:09:10.231Z,24.70
2023-04-28T13:14:12.549Z,24.80
2023-04-28T13:19:14.920Z,24.80
2023-04-28T13:24:17.560Z,24.90
2023-04-28T13:29:19.823Z,25.40
2023-04-28T13:34:22.116Z,25.40
2023-04-28T13:39:24.599Z,26.40
2023-04-28T13:44:26.816Z,26.90
2023-04-28T13:49:29.297Z,27.00
2023-04-28T13:54:31.676Z,27.20
2023-04-28T13:59:34.401Z,27.00
2023-04-28T14:04:37.162Z,27.70
2023-04-28T14:09:40.522Z,25.00
2023-04-28T14:14:43.512Z,24.00
2023-04-28T14:19:46.795Z,23.90
2023-04-28T14:24:49.922Z,26.10
2023-04-28T14:29:52.511Z,27.40
2023-04-28T14:34:54.867Z,27.90
2023-04-28T14:39:57.326Z,27.60
2023-04-28T14:45:00.217Z,28.20
2023-04-28T14:50:02.616Z,29.20
2023-04-28T14:55:07.755Z,29.40
2023-04-28T15:00:10.616Z,28.70
2023-04-28T15:05:13.370Z,28.80
2023-04-28T15:10:15.758Z,27.50
2023-04-28T15:15:18.328Z,26.20
2023-04-28T15:20:31.372Z,25.10
2023-04-28T15:25:33.770Z,24.00
2023-04-28T15:30:36.608Z,24.40
2023-04-28T15:35:39.036Z,25.30
2023-04-28T15:40:42.582Z,26.10
2023-04-28T15:45:55.593Z,27.60
2023-04-28T15:50:58.587Z,28.10
2023-04-28T15:56:01.140Z,28.70
2023-04-28T16:01:05.291Z,28.70
2023-04-28T16:06:08.537Z,28.60
2023-04-28T16:11:17.733Z,29.10
2023-04-28T16:16:23.441Z,29.00
2023-04-28T16:21:59.271Z,28.70
2023-04-28T16:27:00.088Z,28.60
2023-04-28T16:32:03.360Z,28.40
2023-04-28T16:37:07.127Z,27.90
2023-04-28T16:42:09.482Z,26.50
2023-04-28T16:47:11.831Z,25.30
2023-04-28T16:52:14.432Z,23.90
2023-04-28T16:57:16.933Z,23.00
2023-04-28T17:02:19.368Z,22.30
2023-04-28T17:07:22.392Z,21.40
2023-04-28T17:12:26.798Z,21.00
2023-04-28T17:17:29.248Z,20.60
2023-04-28T17:22:31.594Z,20.00
2023-04-28T17:27:34.222Z,19.70
2023-04-28T17:32:37.438Z,19.40
2023-04-28T17:37:39.829Z,19.00
2023-04-28T17:49:47.707Z,18.40
2023-04-28T17:54:50.380Z,18.10
2023-04-28T17:59:52.983Z,17.90
2023-04-28T18:04:55.307Z,17.60
2023-04-28T18:09:57.819Z,17.40
2023-04-28T18:15:01.360Z,17.20
2023-04-28T18:20:06.899Z,17.10
2023-04-28T18:25:09.990Z,17.10
2023-04-28T18:30:13.009Z,16.90
2023-04-28T18:35:15.669Z,16.90
2023-04-28T18:40:18.103Z,16.70
2023-04-28T18:45:20.516Z,16.70
2023-04-28T18:50:23.705Z,16.60
2023-04-28T18:55:26.262Z,16.60
2023-04-28T19:00:28.548Z,16.60
2023-04-28T19:05:30.941Z,16.40
2023-04-28T19:10:33.505Z,16.20
2023-04-28T19:15:35.937Z,16.00
2023-04-28T19:20:38.255Z,16.00
2023-04-28T19:25:40.585Z,16.00
2023-04-28T19:30:43.581Z,15.90
2023-04-28T19:35:46.139Z,15.80
2023-04-28T19:40:49.516Z,15.70
2023-04-28T19:45:52.040Z,15.60
2023-04-28T19:50:54.459Z,15.60
2023-04-28T19:56:00.929Z,15.50
2023-04-28T20:01:06.442Z,15.50
2023-04-28T20:06:09.420Z,15.30
2023-04-28T20:11:11.970Z,15.20
2023-04-28T20:16:14.323Z,15.10
2023-04-28T20:21:17.207Z,15.00
2023-04-28T20:26:20.627Z,14.90
2023-04-28T20:31:24.122Z,14.80
2023-04-28T20:36:27.320Z,14.80
2023-04-28T20:41:29.611Z,14.70
2023-04-28T20:46:33.147Z,14.60
2023-04-28T20:51:37.351Z,14.60
2023-04-28T20:56:40.244Z,14.50
2023-04-28T21:01:42.619Z,14.50
2023-04-28T21:06:44.987Z,14.50
2023-04-28T21:11:48.076Z,14.50
2023-04-28T21:16:51.065Z,14.30
2023-04-28T21:21:53.445Z,14.10
2023-04-28T21:26:55.722Z,14.20
2023-04-28T21:31:58.611Z,14.10
2023-04-28T21:37:02.060Z,14.00
2023-04-28T21:42:04.791Z,14.00
2023-04-28T21:47:07.071Z,13.80
2023-04-28T21:52:09.477Z,13.90
2023-04-28T21:57:11.797Z,13.60
2023-04-28T22:02:14.127Z,13.40
2023-04-28T22:07:16.993Z,13.40
2023-04-28T22:12:19.675Z,13.30
2023-04-28T22:17:22.294Z,13.40
2023-04-28T22:22:24.663Z,13.20
2023-04-28T22:27:27.106Z,13.20
2023-04-28T22:32:29.989Z,13.00
2023-04-28T22:37:34.007Z,13.00
2023-04-28T22:42:37.576Z,12.90
2023-04-28T22:47:41.134Z,12.80
2023-04-28T22:52:43.616Z,12.80
2023-04-28T22:57:46.105Z,12.70
2023-04-28T23:02:48.586Z,12.70
2023-04-28T23:07:51.008Z,12.60
2023-04-28T23:12:53.361Z,12.60
2023-04-28T23:17:55.623Z,12.60
2023-04-28T23:22:58.713Z,12.60
2023-04-28T23:28:01.054Z,12.60
2023-04-28T23:33:04.046Z,12.50
2023-04-28T23:38:06.621Z,12.50
2023-04-28T23:43:08.931Z,12.50
2023-04-28T23:48:11.207Z,12.40
2023-04-28T23:53:13.600Z,12.40
2023-04-28T23:58:16.090Z,12.40
